Time;durP1;ratioP1;P1;durP2;ratioP2;P2;SDS_P1;SDS_P2;PMS_P1;PMS_P2;Temp;Humidity;BMP_temperature;BMP_pressure;BME280_temperature;BME280_humidity;BME280_pressure;Samples;Min_cycle;Max_cycle;Signal;HPM_P1;HPM_P2
2021/09/28 09:27:33;;;;;;;1.42;1.32;;;;;;;23.55;38.13;101192.78;1867873;76;26688;-66
2021/09/28 09:30:15;;;;;;;1.67;1.42;;;;;;;23.59;37.45;101196.37;1824659;78;25422;-67
2021/09/28 09:32:47;;;;;;;2.35;1.35;;;;;;;23.46;36.78;101195.02;1824590;78;27466;-67
2021/09/28 09:35:34;;;;;;;4.30;1.50;;;;;;;23.08;35.48;101197.69;1822935;78;26127;-66
2021/09/28 09:38:15;;;;;;;1.92;1.35;;;;;;;22.57;36.60;101196.69;1804048;78;25565;-66
2021/09/28 09:40:46;;;;;;;2.92;1.50;;;;;;;22.54;37.82;101191.34;1824636;78;25526;-65
2021/09/28 09:43:15;;;;;;;3.62;1.72;;;;;;;22.68;38.18;101192.16;1824616;78;25538;-66
2021/09/28 09:45:43;;;;;;;2.98;1.45;;;;;;;22.95;37.88;101186.63;1824528;78;28322;-64
2021/09/28 09:48:27;;;;;;;2.12;1.62;;;;;;;22.97;37.09;101193.15;1824416;78;25763;-65
2021/09/28 09:51:10;;;;;;;1.50;1.40;;;;;;;22.66;36.65;101196.43;1824492;78;25379;-68
2021/09/28 09:53:58;;;;;;;1.27;1.17;;;;;;;22.55;37.08;101193.52;1824482;78;25552;-69
2021/09/28 09:56:48;;;;;;;3.55;1.57;;;;;;;22.66;37.70;101203.33;1823701;78;25748;-70
2021/09/28 09:59:18;;;;;;;4.45;1.47;;;;;;;22.84;37.09;101200.27;1824313;78;27573;-70
2021/09/28 10:01:45;;;;;;;2.30;1.62;;;;;;;22.65;36.43;101194.86;1824362;78;25522;-70
2021/09/28 10:04:16;;;;;;;3.92;1.47;;;;;;;22.36;36.62;101194.39;1824463;78;25510;-70
2021/09/28 10:06:43;;;;;;;4.58;1.50;;;;;;;22.32;37.45;101198.46;1824468;78;25692;-70
2021/09/28 10:09:29;;;;;;;1.92;1.67;;;;;;;22.37;37.91;101197.34;1824697;78;25439;-70
2021/09/28 10:12:00;;;;;;;1.82;1.60;;;;;;;22.61;38.65;101198.94;1824708;78;27465;-69
2021/09/28 10:14:43;;;;;;;3.40;1.60;;;;;;;22.98;38.04;101199.67;1824631;78;25525;-69
2021/09/28 10:17:39;;;;;;;1.75;1.50;;;;;;;22.92;36.30;101200.59;1824870;78;25462;-70
2021/09/28 10:20:07;;;;;;;2.45;1.60;;;;;;;22.85;37.17;101196.91;1824693;78;25993;-70
2021/09/28 10:23:02;;;;;;;1.67;1.45;;;;;;;22.99;36.52;101190.84;1824729;78;25174;-70
2021/09/28 10:25:34;;;;;;;7.40;3.60;;;;;;;23.05;35.88;101197.61;1812841;78;28044;-70
2021/09/28 10:28:09;;;;;;;4.40;1.40;;;;;;;22.65;36.46;101198.41;1824387;78;25501;-70
2021/09/28 10:30:40;;;;;;;1.77;1.65;;;;;;;22.35;36.01;101198.30;1824566;78;25565;-70
2021/09/28 10:33:14;;;;;;;2.75;1.62;;;;;;;22.13;36.88;101195.71;1824441;78;25807;-70
2021/09/28 10:36:00;;;;;;;3.05;1.55;;;;;;;22.18;37.27;101198.95;1824601;78;25424;-70
2021/09/28 10:38:58;;;;;;;3.87;1.65;;;;;;;22.32;36.37;101199.84;1823991;78;27462;-70
2021/09/28 10:41:45;;;;;;;2.92;1.47;;;;;;;22.17;36.98;101203.48;1823610;78;25407;-70
2021/09/28 10:44:37;;;;;;;3.93;1.23;;;;;;;22.34;36.98;101192.00;1824199;78;25552;-70
2021/09/28 10:47:01;;;;;;;2.12;1.52;;;;;;;22.35;36.73;101188.05;1823523;78;25404;-71
2021/09/28 10:49:32;;;;;;;3.25;1.50;;;;;;;22.45;36.59;101212.84;1823865;78;25407;-70
2021/09/28 10:52:25;;;;;;;2.40;2.20;;;;;;;22.51;37.43;101188.53;1823872;78;27503;-70
2021/09/28 10:55:12;;;;;;;2.15;1.77;;;;;;;22.94;37.50;101194.70;1823762;78;25912;-70
2021/09/28 10:58:09;;;;;;;2.33;2.00;;;;;;;23.25;36.63;101192.80;1823853;78;25524;-70
2021/09/28 11:00:44;;;;;;;1.60;1.32;;;;;;;23.34;36.37;101191.12;1823395;78;25367;-69
2021/09/28 11:03:12;;;;;;;1.95;1.60;;;;;;;23.61;36.39;101190.48;1822965;78;25588;-70
2021/09/28 11:05:46;;;;;;;1.60;1.50;;;;;;;23.68;36.22;101183.64;1823936;78;27531;-70
2021/09/28 11:08:16;;;;;;;2.80;1.70;;;;;;;23.72;35.76;101187.83;1822635;78;25504;-70
2021/09/28 11:10:48;;;;;;;3.30;2.45;;;;;;;23.73;35.55;101183.91;1823945;78;25575;-70
2021/09/28 11:13:14;;;;;;;3.85;2.05;;;;;;;23.71;35.70;101189.80;1822037;78;25740;-70
2021/09/28 11:15:41;;;;;;;2.90;1.80;;;;;;;23.72;35.98;101183.69;1824538;78;25533;-70
2021/09/28 11:18:13;;;;;;;2.10;1.72;;;;;;;23.71;35.33;101183.49;1803433;78;27553;-70
2021/09/28 11:20:42;;;;;;;3.72;1.75;;;;;;;23.56;35.50;101181.14;1823751;78;25525;-70
2021/09/28 11:23:12;;;;;;;2.10;1.90;;;;;;;23.68;36.08;101189.98;1823921;78;25454;-70
2021/09/28 11:25:52;;;;;;;4.33;1.77;;;;;;;23.83;36.06;101182.66;1823760;78;25809;-70
2021/09/28 11:28:24;;;;;;;1.60;1.50;;;;;;;24.06;35.47;101185.87;1823858;78;25391;-69
2021/09/28 11:31:05;;;;;;;3.45;1.80;;;;;;;23.96;34.82;101184.58;1823894;78;28860;-70
2021/09/28 11:33:46;;;;;;;1.70;1.60;;;;;;;23.85;34.21;101183.66;1823735;78;25601;-70
2021/09/28 11:36:17;;;;;;;1.98;1.50;;;;;;;23.41;34.38;101184.31;1823790;78;25544;-69
2021/09/28 11:38:47;;;;;;;2.75;1.80;;;;;;;22.94;34.16;101182.29;1823766;78;25435;-69
2021/09/28 11:41:21;;;;;;;3.20;2.00;;;;;;;22.69;35.08;101179.94;1823837;78;25446;-69
2021/09/28 11:43:55;;;;;;;5.15;1.80;;;;;;;22.52;35.03;101186.77;1823858;78;27448;-70
2021/09/28 11:46:26;;;;;;;3.37;1.77;;;;;;;22.30;35.83;101184.82;1823789;78;25543;-71
2021/09/28 11:48:58;;;;;;;2.22;1.70;;;;;;;22.05;35.65;101192.05;1823768;78;25600;-70
2021/09/28 11:51:32;;;;;;;2.50;1.85;;;;;;;21.68;35.64;101186.23;1823453;78;25717;-70
2021/09/28 11:54:03;;;;;;;2.17;1.92;;;;;;;21.45;36.44;101193.78;1800863;78;25616;-69
2021/09/28 11:56:34;;;;;;;2.55;1.98;;;;;;;21.35;37.25;101197.92;1823813;78;27986;-69
2021/09/28 11:59:01;;;;;;;1.92;1.80;;;;;;;21.41;37.40;101191.55;1824024;78;25546;-69
2021/09/28 12:01:29;;;;;;;2.75;2.10;;;;;;;21.06;36.87;101192.34;1824161;78;25430;-69
2021/09/28 12:07:22;;;;;;;2.42;2.05;;;;;;;20.68;37.07;101189.13;1824146;78;25396;-69
2021/09/28 12:09:54;;;;;;;2.95;2.10;;;;;;;20.67;38.17;101181.23;1822187;78;27509;-69
2021/09/28 12:12:25;;;;;;;5.50;1.80;;;;;;;20.69;37.39;101184.45;1823573;78;25646;-70
2021/09/28 12:14:56;;;;;;;2.22;2.02;;;;;;;20.36;38.04;101188.89;1823753;78;25413;-70
2021/09/28 12:17:34;;;;;;;4.03;1.80;;;;;;;20.25;37.86;101190.80;1821929;78;25525;-69
2021/09/28 12:20:09;;;;;;;1.70;1.60;;;;;;;20.10;38.17;101188.25;1823898;78;25576;-69
2021/09/28 12:22:47;;;;;;;4.15;2.08;;;;;;;19.87;38.14;101182.55;1823536;78;28810;-68
2021/09/28 12:25:26;;;;;;;2.08;1.92;;;;;;;19.59;38.75;101185.26;1822434;78;25540;-69
2021/09/28 12:28:08;;;;;;;2.12;1.92;;;;;;;19.36;38.76;101186.37;1823750;78;25597;-69
2021/09/28 12:30:58;;;;;;;2.62;2.20;;;;;;;19.23;39.58;101186.38;1823734;78;25599;-69
2021/09/28 12:33:27;;;;;;;3.52;2.12;;;;;;;19.29;39.93;101186.14;1823661;78;25373;-69
2021/09/28 12:35:57;;;;;;;3.25;2.30;;;;;;;19.50;40.54;101195.01;1823882;78;27364;-69
2021/09/28 12:38:24;;;;;;;2.77;2.05;;;;;;;19.49;40.10;101187.13;1823636;78;25756;-69
2021/09/28 12:40:51;;;;;;;2.25;2.05;;;;;;;19.45;40.35;101187.02;1823691;78;25557;-69
2021/09/28 12:43:26;;;;;;;2.42;2.20;;;;;;;19.49;40.41;101185.75;1823548;78;25588;-69
2021/09/28 12:45:58;;;;;;;2.22;1.70;;;;;;;19.48;40.92;101189.63;1823760;78;25600;-69
2021/09/28 12:48:39;;;;;;;5.58;2.20;;;;;;;19.49;40.74;101183.80;1823787;78;27661;-69
2021/09/28 12:51:20;;;;;;;5.60;2.10;;;;;;;19.48;40.60;101186.88;1823654;78;25367;-68
2021/09/28 12:53:48;;;;;;;2.15;2.00;;;;;;;19.36;40.25;101186.37;1823546;78;25384;-69
2021/09/28 12:56:18;;;;;;;2.15;1.95;;;;;;;19.14;40.30;101186.31;1818741;78;25700;-69
2021/09/28 12:58:45;;;;;;;2.10;2.00;;;;;;;18.98;41.03;101180.72;1819541;77;26134;-68
2021/09/28 13:01:11;;;;;;;3.35;2.05;;;;;;;18.94;41.06;101188.04;1809637;79;27499;-69
2021/09/28 13:03:38;;;;;;;2.10;1.90;;;;;;;18.90;41.07;101193.41;1810176;79;25704;-70
2021/09/28 13:06:09;;;;;;;3.45;2.20;;;;;;;18.99;41.78;101195.45;1810383;79;25747;-69
2021/09/28 13:08:37;;;;;;;2.42;2.22;;;;;;;19.15;41.58;101192.79;1810416;79;25709;-70
2021/09/28 13:11:09;;;;;;;5.90;4.00;;;;;;;19.36;41.95;101183.63;1833137;77;25539;-70
2021/09/28 13:13:35;;;;;;;21.80;14.60;;;;;;;19.52;41.51;101183.11;1857459;77;27437;-69
2021/09/28 13:16:06;;;;;;;4.58;3.67;;;;;;;19.66;41.30;101191.52;1857598;77;25851;-69
2021/09/28 13:18:31;;;;;;;10.60;5.10;;;;;;;19.67;40.90;101189.02;1787889;80;25652;-70
2021/09/28 13:20:58;;;;;;;4.10;3.45;;;;;;;19.67;41.08;101196.67;1787912;80;25499;-70
2021/09/28 13:23:24;;;;;;;5.53;2.40;;;;;;;19.55;40.92;101187.91;1787873;80;25373;-70
2021/09/28 13:25:51;;;;;;;3.52;2.40;;;;;;;19.59;41.46;101186.05;1787897;80;27596;-70
2021/09/28 13:28:17;;;;;;;3.65;2.65;;;;;;;19.59;40.86;101183.88;1787791;80;25466;-70
2021/09/28 13:30:47;;;;;;;3.67;2.45;;;;;;;19.56;41.09;101186.77;1787898;80;25563;-69
2021/09/28 13:33:15;;;;;;;4.80;2.80;;;;;;;19.47;40.90;101192.16;1787676;80;25753;-70
2021/09/28 13:35:41;;;;;;;4.33;2.58;;;;;;;19.43;41.26;101187.13;1787970;80;25794;-71
2021/09/28 13:38:09;;;;;;;2.62;2.20;;;;;;;19.32;41.10;101187.62;1788485;80;27455;-69
2021/09/28 13:40:36;;;;;;;5.62;2.60;;;;;;;19.35;41.60;101190.25;1788040;80;25825;-70
2021/09/28 13:43:06;;;;;;;3.30;2.65;;;;;;;19.28;41.27;101191.42;1787904;80;25684;-70
2021/09/28 13:45:32;;;;;;;5.08;2.65;;;;;;;19.08;41.50;101189.05;1788025;80;25508;-70
2021/09/28 13:48:00;;;;;;;3.20;2.47;;;;;;;18.92;41.83;101184.85;1787934;80;25660;-70
2021/09/28 13:50:26;;;;;;;3.72;2.52;;;;;;;18.71;42.15;101189.03;1787972;80;28103;-70
2021/09/28 13:52:53;;;;;;;5.92;2.83;;;;;;;18.53;42.34;101185.73;1787704;80;25754;-69
2021/09/28 13:55:20;;;;;;;3.10;2.58;;;;;;;18.34;42.52;101191.19;1787988;80;25441;-70
2021/09/28 13:57:47;;;;;;;3.92;2.60;;;;;;;18.16;42.64;101195.25;1787796;80;26066;-69
2021/09/28 14:00:14;;;;;;;2.70;2.50;;;;;;;18.04;43.44;101193.27;1788013;80;25532;-70
2021/09/28 14:02:43;;;;;;;4.08;3.02;;;;;;;17.96;43.82;101192.79;1763366;80;28107;-69
2021/09/28 14:05:11;;;;;;;3.95;3.02;;;;;;;17.83;43.88;101193.30;1770354;80;25380;-68
2021/09/28 14:07:38;;;;;;;3.07;2.77;;;;;;;17.72;44.08;101190.16;1756525;81;25190;-68
2021/09/28 14:10:08;;;;;;;4.40;3.20;;;;;;;17.52;44.47;101199.42;1787423;80;26224;-68
2021/09/28 14:12:45;;;;;;;;;;;;;;;;;;;;;
2021/09/28 14:15:07;;;;;;;7.85;3.70;;;;;;;17.56;45.20;101198.19;1708500;83;27521;-69
2021/09/28 14:17:34;;;;;;;5.15;3.10;;;;;;;17.50;45.09;101199.51;1775304;80;25547;-69
2021/09/28 14:20:00;;;;;;;2.92;2.62;;;;;;;17.34;45.37;101196.58;1775201;80;25269;-68
2021/09/28 14:22:27;;;;;;;3.25;2.50;;;;;;;17.20;45.34;101198.75;1775061;80;25764;-69
2021/09/28 14:24:53;;;;;;;3.60;2.85;;;;;;;17.05;45.41;101200.16;1775324;80;25721;-69
2021/09/28 14:27:20;;;;;;;4.50;3.00;;;;;;;16.94;45.90;101194.25;1769784;79;28399;-69
2021/09/28 14:29:46;;;;;;;2.50;2.20;;;;;;;16.86;46.20;101187.72;1746217;80;25717;-69
2021/09/28 14:32:13;;;;;;;4.50;2.67;;;;;;;16.81;46.34;101200.17;1712632;82;26450;-69
2021/09/28 14:34:40;;;;;;;4.00;2.60;;;;;;;16.79;47.10;101197.77;1714052;83;26338;-70
2021/09/28 14:37:06;;;;;;;5.97;2.60;;;;;;;16.83;47.29;101199.27;1713981;82;25705;-67
2021/09/28 14:39:32;;;;;;;3.70;2.87;;;;;;;16.88;47.43;101205.16;1713822;83;28072;-67
2021/09/28 14:41:59;;;;;;;4.47;2.20;;;;;;;16.96;47.25;101203.73;1713826;83;25424;-66
2021/09/28 14:44:26;;;;;;;4.05;2.70;;;;;;;17.01;47.29;101203.30;1714000;83;25601;-67
2021/09/28 14:46:52;;;;;;;2.90;2.70;;;;;;;17.08;47.43;101200.30;1713930;83;26408;-66
2021/09/28 14:49:19;;;;;;;3.83;2.55;;;;;;;17.16;47.18;101203.55;1714001;83;25530;-65
2021/09/28 14:51:45;;;;;;;4.20;2.42;;;;;;;17.25;47.29;101207.59;1718402;82;28062;-66
2021/09/28 14:54:12;;;;;;;6.25;2.70;;;;;;;17.32;46.75;101211.16;1738178;82;25568;-67
2021/09/28 14:56:38;;;;;;;4.47;2.50;;;;;;;17.33;46.68;101210.83;1738371;82;25646;-67
2021/09/28 14:59:05;;;;;;;4.42;2.50;;;;;;;17.36;46.80;101207.98;1738397;82;25670;-66
2021/09/28 15:01:32;;;;;;;2.92;2.35;;;;;;;17.47;47.14;101205.09;1738362;82;25578;-66
2021/09/28 15:03:58;;;;;;;5.70;2.72;;;;;;;17.51;46.70;101210.70;1738097;82;27503;-66
2021/09/28 15:06:25;;;;;;;3.17;2.45;;;;;;;17.53;47.02;101209.79;1738161;82;25413;-65
2021/09/28 15:08:51;;;;;;;5.80;3.33;;;;;;;17.58;47.03;101212.90;1738205;82;25570;-66
2021/09/28 15:11:18;;;;;;;4.65;2.90;;;;;;;17.58;46.85;101210.16;1738085;82;25540;-64
2021/09/28 15:13:45;;;;;;;4.37;3.10;;;;;;;17.50;46.56;101205.80;1737970;82;25385;-65
2021/09/28 15:16:13;;;;;;;6.05;3.40;;;;;;;17.46;46.61;101213.63;1737199;82;27480;-62
2021/09/28 15:18:40;;;;;;;6.57;3.20;;;;;;;17.25;46.77;101233.55;1737151;82;25698;-63
2021/09/28 15:21:11;;;;;;;5.55;3.35;;;;;;;17.25;46.77;101233.55;1738397;82;25713;-64
2021/09/28 15:23:38;;;;;;;5.97;3.92;;;;;;;16.98;46.71;101215.70;1735568;82;25516;-64
2021/09/28 15:26:05;;;;;;;5.85;3.42;;;;;;;16.90;46.91;101215.97;1777235;78;25538;-64
2021/09/28 15:28:32;;;;;;;3.62;3.00;;;;;;;16.83;47.30;101217.60;1816551;77;27652;-64
2021/09/28 15:31:25;;;;;;;7.15;3.27;;;;;;;16.74;47.47;101217.65;1788728;80;25579;-65
2021/09/28 15:33:52;;;;;;;7.97;3.58;;;;;;;16.66;47.67;101218.48;1638880;87;26220;-63
2021/09/28 15:36:21;;;;;;;3.98;3.42;;;;;;;16.53;48.22;101214.28;1634146;86;26164;-64
2021/09/28 15:38:53;;;;;;;3.52;3.12;;;;;;;16.45;48.42;101217.83;1632314;87;25662;-64
2021/09/28 15:41:27;;;;;;;5.67;3.45;;;;;;;16.36;49.01;101213.77;1626849;87;27471;-64
2021/09/28 15:43:55;;;;;;;7.22;3.20;;;;;;;16.27;49.38;101217.64;1630769;87;25767;-64
2021/09/28 15:46:25;;;;;;;3.70;3.35;;;;;;;16.16;49.72;101222.08;1635937;86;26300;-64
2021/09/28 15:48:56;;;;;;;3.92;3.22;;;;;;;16.05;50.01;101226.26;1638538;86;26156;-64
2021/09/28 15:51:25;;;;;;;5.83;2.95;;;;;;;15.90;50.32;101228.91;1614505;86;25887;-64
2021/09/28 15:53:53;;;;;;;6.30;3.72;;;;;;;15.79;50.99;101228.45;1637410;86;27480;-64
2021/09/28 15:56:21;;;;;;;9.88;3.83;;;;;;;15.68;51.06;101233.40;1635529;87;25270;-63
2021/09/28 15:58:51;;;;;;;4.90;3.72;;;;;;;15.58;50.91;101242.44;1632693;87;25549;-66
2021/09/28 16:01:22;;;;;;;8.40;3.67;;;;;;;15.46;51.13;101239.80;1632386;87;26075;-64
2021/09/28 16:03:49;;;;;;;4.60;3.72;;;;;;;15.36;51.59;101233.83;1632586;86;25409;-66
2021/09/28 16:06:18;;;;;;;6.47;3.70;;;;;;;15.24;52.14;101239.36;1631429;87;28320;-66
2021/09/28 16:08:46;;;;;;;5.25;4.10;;;;;;;15.12;52.55;101235.88;1637915;86;25793;-66
2021/09/28 16:11:15;;;;;;;4.85;3.77;;;;;;;15.03;52.76;101243.78;1672595;83;25771;-66
2021/09/28 16:13:45;;;;;;;6.08;4.20;;;;;;;14.92;52.90;101246.00;1701581;84;25675;-66
2021/09/28 16:16:15;;;;;;;;;;;;;;;14.81;52.92;101244.09;1717679;83;25288;-66
2021/09/28 16:18:46;;;;;;;10.18;4.33;;;;;;;14.70;53.29;101249.59;1692408;84;27499;-64
2021/09/28 16:21:15;;;;;;;8.38;4.50;;;;;;;14.55;53.11;101250.76;1693230;84;25723;-65
2021/09/28 16:23:45;;;;;;;6.78;4.92;;;;;;;14.43;53.36;101250.54;1693447;84;32685;-66
2021/09/28 16:26:14;;;;;;;9.10;5.15;;;;;;;14.31;53.67;101248.39;1694755;84;26223;-66
2021/09/28 16:28:44;;;;;;;9.20;6.22;;;;;;;14.19;54.02;101261.19;1688514;84;25691;-65
2021/09/28 16:31:11;;;;;;;52.78;33.45;;;;;;;14.07;54.22;101264.47;1696926;84;27540;-65
2021/09/28 16:33:39;;;;;;;39.10;26.50;;;;;;;13.96;54.60;101261.20;1701934;81;25730;-66
2021/09/28 16:36:08;;;;;;;27.98;19.75;;;;;;;13.88;55.19;101266.00;1705841;82;25671;-65
2021/09/28 16:38:38;;;;;;;19.27;12.58;;;;;;;13.76;55.86;101266.55;1728222;82;26219;-66
2021/09/28 16:41:08;;;;;;;21.45;14.98;;;;;;;13.66;56.50;101267.34;1722580;82;25603;-64
2021/09/28 16:43:38;;;;;;;32.78;22.10;;;;;;;13.54;56.57;101273.30;1731338;82;27463;-65
2021/09/28 16:46:06;;;;;;;18.80;9.98;;;;;;;13.41;56.82;101269.48;1731247;82;25763;-66
2021/09/28 16:48:33;;;;;;;19.20;10.70;;;;;;;13.28;56.98;101273.80;1731104;82;26343;-65
2021/09/28 16:51:01;;;;;;;107.05;61.80;;;;;;;13.18;57.30;101269.38;1731328;82;25534;-66
2021/09/28 16:57:09;;;;;;;32.93;20.00;;;;;;;12.94;58.53;101267.39;1693573;76;26734;-67
2021/09/28 16:59:37;;;;;;;21.42;13.28;;;;;;;12.78;58.32;101273.67;1679724;77;25894;-68
2021/09/28 17:02:04;;;;;;;17.15;10.93;;;;;;;12.71;58.88;101274.86;1752228;81;25505;-65
2021/09/28 17:04:30;;;;;;;21.65;12.70;;;;;;;12.64;59.21;101279.88;1749867;82;25639;-64
2021/09/28 17:06:58;;;;;;;18.15;10.98;;;;;;;12.58;59.48;101282.98;1752147;81;25434;-65
2021/09/28 17:09:26;;;;;;;17.95;10.40;;;;;;;12.51;59.88;101275.23;1741677;82;27501;-65
2021/09/28 17:11:53;;;;;;;13.43;8.95;;;;;;;12.43;60.39;101279.97;1742153;82;25620;-64
2021/09/28 17:14:22;;;;;;;13.53;9.58;;;;;;;12.40;60.21;101280.03;1739529;82;25687;-64
2021/09/28 17:16:49;;;;;;;15.20;9.83;;;;;;;12.38;60.97;101288.20;1738618;82;25956;-66
2021/09/28 17:19:18;;;;;;;15.72;9.40;;;;;;;12.32;60.86;101283.41;1739623;82;25508;-65
2021/09/28 17:29:31;;;;;;;14.07;8.55;;;;;;;12.08;61.65;101299.80;1812325;77;27042;-57
2021/09/28 17:32:19;;;;;;;17.35;10.93;;;;;;;12.01;62.23;101293.95;1777737;80;25448;-58
2021/09/28 17:39:59;;;;;;;22.42;11.35;;;;;;;11.78;62.40;101297.22;1759746;77;27012;-60
2021/09/28 17:42:27;;;;;;;16.60;11.08;;;;;;;11.71;62.60;101292.71;1755710;81;25684;-60
2021/09/28 17:44:55;;;;;;;20.27;12.60;;;;;;;11.64;62.77;101297.66;1713024;83;25474;-59
2021/09/28 17:47:22;;;;;;;21.60;13.30;;;;;;;11.58;62.48;101298.84;1711708;83;28087;-60
2021/09/28 17:49:50;;;;;;;26.77;14.87;;;;;;;11.52;62.71;101304.85;1716371;83;25692;-61
2021/09/28 17:52:19;;;;;;;24.60;15.15;;;;;;;11.46;63.50;101307.39;1751958;81;25771;-60
2021/09/28 17:57:21;;;;;;;36.70;25.30;;;;;;;11.33;63.69;101304.82;1711555;83;25520;-60
2021/09/28 17:59:49;;;;;;;39.00;22.80;;;;;;;11.27;63.53;101303.81;1716316;83;27472;-61
2021/09/28 18:02:16;;;;;;;31.95;21.40;;;;;;;11.18;64.04;101297.67;1752821;81;25791;-59
2021/09/28 18:04:43;;;;;;;35.08;22.00;;;;;;;11.12;64.12;101302.91;1712737;83;25779;-59
2021/09/28 18:07:12;;;;;;;33.88;21.15;;;;;;;11.06;64.26;101297.27;1755161;81;25822;-60
2021/09/28 18:09:39;;;;;;;41.10;25.05;;;;;;;11.00;64.31;101300.59;1714231;82;25676;-61
2021/09/28 18:12:07;;;;;;;32.50;19.82;;;;;;;10.97;64.66;101299.01;1709149;83;28202;-61
2021/09/28 18:14:34;;;;;;;31.02;18.15;;;;;;;10.91;64.96;101302.30;1719696;81;25647;-60
2021/09/28 18:17:01;;;;;;;25.48;16.00;;;;;;;10.86;65.04;101302.34;1711328;83;25617;-58
2021/09/28 18:19:28;;;;;;;25.37;16.40;;;;;;;10.80;64.97;101302.95;1711297;83;25688;-60
2021/09/28 18:22:00;;;;;;;27.65;15.70;;;;;;;10.76;65.52;101301.09;1711458;83;25606;-60
2021/09/28 18:24:25;;;;;;;23.55;14.23;;;;;;;10.70;65.54;101298.99;1711292;83;27502;-60
2021/09/28 18:26:52;;;;;;;27.17;14.38;;;;;;;10.64;64.96;101302.30;1711322;83;25657;-59
2021/09/28 18:29:26;;;;;;;23.92;15.10;;;;;;;10.60;65.26;101302.59;1711386;83;25478;-59
2021/09/28 18:31:52;;;;;;;23.52;15.60;;;;;;;10.57;65.08;101296.42;1711092;83;25609;-61
2021/09/28 18:34:18;;;;;;;24.63;14.60;;;;;;;10.53;65.33;101302.67;1711365;83;25670;-60
2021/09/28 18:36:48;;;;;;;111.60;55.90;;;;;;;10.48;65.64;101298.11;1710486;83;27446;-58
2021/09/28 18:39:17;;;;;;;;;;;;;;;10.42;65.84;101298.70;1707724;82;25542;-59
2021/09/28 18:44:15;;;;;;;26.42;16.23;;;;;;;10.30;66.11;101306.34;1689326;84;25563;-60
2021/09/28 18:46:41;;;;;;;24.07;16.73;;;;;;;10.25;66.60;101309.09;1684060;84;26308;-57
2021/09/28 18:49:12;;;;;;;22.10;14.65;;;;;;;10.21;67.11;101310.72;1683645;84;27501;-60
2021/09/28 18:51:39;;;;;;;21.70;14.25;;;;;;;10.16;66.76;101311.56;1691155;84;25843;-62
2021/09/28 18:54:10;;;;;;;22.70;14.93;;;;;;;10.13;66.57;101318.91;1692193;84;25547;-61
2021/09/28 18:59:14;;;;;;;30.20;17.45;;;;;;;10.04;67.18;101324.06;1682372;85;25612;-61
2021/09/28 19:01:43;;;;;;;;;;;;;;;10.01;67.24;101326.00;1684064;85;27515;-60
2021/09/28 19:04:31;;;;;;;26.17;16.15;;;;;;;9.98;67.36;101325.20;1681996;85;25472;-59
2021/09/28 19:07:02;;;;;;;28.95;18.25;;;;;;;9.91;67.79;101328.22;1682434;80;25800;-59
2021/09/28 19:09:22;;;;;;;24.95;16.27;;;;;;;9.87;67.71;101330.39;1763994;80;26599;-59
2021/09/28 19:11:50;;;;;;;31.17;16.97;;;;;;;9.83;67.48;101327.99;1808631;79;25792;-59
2021/09/28 19:14:20;;;;;;;26.00;16.87;;;;;;;9.79;67.81;101329.09;1809719;79;28223;-57
2021/09/28 19:16:47;;;;;;;31.02;18.02;;;;;;;9.76;67.63;101332.34;1808484;79;26101;-60
2021/09/28 19:19:18;;;;;;;43.83;18.17;;;;;;;9.70;67.91;101323.99;1809018;79;25767;-61
2021/09/28 19:21:49;;;;;;;28.80;18.48;;;;;;;9.67;67.66;101332.64;1809881;79;25553;-58
2021/09/28 19:24:27;;;;;;;30.12;19.05;;;;;;;9.64;68.25;101335.92;1809863;79;25466;-59
2021/09/28 19:26:58;;;;;;;28.02;17.10;;;;;;;9.59;67.92;101334.59;1809345;79;28294;-59
2021/09/28 19:29:30;;;;;;;32.28;18.55;;;;;;;9.55;67.57;101338.37;1809482;79;26250;-60
2021/09/28 19:32:00;;;;;;;32.23;17.85;;;;;;;9.51;68.07;101341.37;1808566;79;25780;-57
2021/09/28 19:34:28;;;;;;;33.70;18.52;;;;;;;9.45;68.08;101345.98;1780201;79;26155;-59
2021/09/28 19:37:02;;;;;;;28.80;17.80;;;;;;;9.41;68.04;101342.20;1808431;79;25693;-59
2021/09/28 19:39:40;;;;;;;26.37;17.70;;;;;;;9.37;68.29;101340.34;1808557;79;27465;-59
2021/09/28 19:42:09;;;;;;;33.08;18.70;;;;;;;9.31;68.37;101344.41;1806621;79;25682;-59
2021/09/28 19:44:37;;;;;;;54.23;32.85;;;;;;;9.28;68.51;101343.61;1809460;79;25693;-58
2021/09/28 19:47:09;;;;;;;57.95;32.20;;;;;;;9.24;68.41;101348.47;1809780;79;25606;-60
2021/09/28 19:49:39;;;;;;;31.68;19.70;;;;;;;9.20;68.82;101350.91;1809814;79;25606;-59
2021/09/28 19:52:09;;;;;;;32.75;20.10;;;;;;;9.18;68.99;101345.50;1809102;78;27474;-59
2021/09/28 19:54:49;;;;;;;35.63;21.37;;;;;;;9.14;68.94;101347.94;1809470;79;25813;-59
2021/09/28 20:37:58;;;;;;;31.00;19.80;;;;;;;8.50;70.24;101330.48;1824106;78;25468;-59
2021/09/28 20:40:28;;;;;;;34.38;20.17;;;;;;;8.48;70.59;101336.66;1823960;78;27627;-59
2021/09/28 20:42:57;;;;;;;31.25;19.40;;;;;;;8.46;70.66;101332.89;1824154;78;25494;-59
2021/09/28 20:45:24;;;;;;;39.35;22.07;;;;;;;8.40;71.04;101330.70;1824114;78;27470;-59
2021/09/28 20:47:50;;;;;;;32.00;19.70;;;;;;;8.39;71.41;101333.15;1823969;78;26063;-59
2021/09/28 20:50:18;;;;;;;32.03;18.60;;;;;;;8.36;71.51;101334.20;1824096;78;25535;-59
2021/09/28 20:52:44;;;;;;;30.68;18.60;;;;;;;8.34;71.72;101329.10;1823846;78;27625;-59
2021/09/28 20:55:12;;;;;;;35.08;19.02;;;;;;;8.33;71.72;101333.41;1822789;78;25742;-59
2021/09/28 20:57:39;;;;;;;33.63;19.40;;;;;;;8.32;71.68;101329.09;1822416;78;28507;-59
2021/09/28 21:00:07;;;;;;;34.03;19.10;;;;;;;8.32;72.03;101337.17;1823774;78;25885;-59
2021/09/28 21:02:35;;;;;;;36.08;18.98;;;;;;;8.30;72.31;101334.74;1824079;78;25664;-59
2021/09/28 21:05:02;;;;;;;33.30;19.87;;;;;;;8.28;72.07;101332.86;1824096;78;26142;-59
2021/09/28 21:07:29;;;;;;;33.15;19.12;;;;;;;8.27;71.90;101332.58;1824036;78;25692;-59
2021/09/28 21:09:55;;;;;;;32.85;19.00;;;;;;;8.26;72.38;101333.67;1824339;78;27517;-59
2021/09/28 21:12:22;;;;;;;31.35;18.50;;;;;;;8.26;72.45;101332.84;1824297;78;25492;-59
2021/09/28 21:14:48;;;;;;;32.55;19.07;;;;;;;8.25;72.51;101332.59;1824404;78;25637;-59
2021/09/28 21:17:15;;;;;;;35.60;19.52;;;;;;;8.24;72.59;101337.17;1824345;78;25581;-59
2021/09/28 21:19:41;;;;;;;32.95;18.30;;;;;;;8.22;72.57;101334.75;1824440;78;25479;-58
2021/09/28 21:22:08;;;;;;;32.48;18.92;;;;;;;8.22;72.47;101329.88;1824377;78;27466;-59
2021/09/28 21:24:34;;;;;;;30.50;18.15;;;;;;;8.21;72.60;101337.70;1824334;78;25510;-58
2021/09/28 21:27:01;;;;;;;41.60;23.60;;;;;;;8.19;72.85;101339.31;1824374;78;25658;-58
2021/09/28 21:29:27;;;;;;;47.30;26.35;;;;;;;8.18;72.48;101334.99;1824334;78;26195;-58
2021/09/28 21:31:56;;;;;;;30.00;18.70;;;;;;;8.18;72.63;101340.93;1824391;78;25433;-58
2021/09/28 21:34:24;;;;;;;32.38;17.55;;;;;;;8.16;72.94;101335.80;1824388;78;27587;-59
2021/09/28 21:36:58;;;;;;;25.95;16.97;;;;;;;8.16;73.24;101337.15;1824058;78;25597;-59
2021/09/28 21:39:26;;;;;;;25.70;16.42;;;;;;;8.15;73.07;101340.91;1824179;78;25626;-59
2021/09/28 21:41:53;;;;;;;28.10;17.25;;;;;;;8.16;73.32;101345.23;1824059;78;25910;-59
2021/09/28 21:44:20;;;;;;;28.45;16.95;;;;;;;8.15;73.39;101339.56;1823430;78;25999;-57
2021/09/28 21:46:48;;;;;;;29.42;15.90;;;;;;;8.16;73.41;101343.09;1823611;78;27541;-58
2021/09/28 21:49:16;;;;;;;22.70;15.25;;;;;;;8.16;73.92;101340.39;1824077;78;25612;-58
2021/09/28 21:51:44;;;;;;;22.32;15.72;;;;;;;8.15;73.96;101346.30;1823379;78;25690;-59
2021/09/28 21:54:11;;;;;;;25.10;15.68;;;;;;;8.16;73.83;101347.93;1824349;78;25632;-58
2021/09/28 21:56:41;;;;;;;23.83;14.23;;;;;;;8.14;74.03;101344.70;1823712;78;25688;-59
2021/09/28 21:59:10;;;;;;;26.40;14.55;;;;;;;8.14;74.23;101347.39;1824250;78;28187;-58
2021/09/28 22:01:39;;;;;;;23.02;15.55;;;;;;;8.15;74.12;101343.61;1823756;78;25762;-57
2021/09/28 22:04:06;;;;;;;22.98;14.45;;;;;;;8.17;74.56;101345.52;1824535;78;25676;-57
2021/09/28 22:06:33;;;;;;;26.40;15.03;;;;;;;8.19;74.45;101342.02;1824263;78;26115;-56
2021/09/28 22:09:00;;;;;;;22.22;13.70;;;;;;;8.21;74.48;101337.16;1814365;78;25826;-56
2021/09/28 22:11:36;;;;;;;20.00;13.28;;;;;;;8.23;74.63;101352.52;1804303;79;27475;-56